sensor_id;sensor_type;location;lat;lon;timestamp;pressure;altitude;pressure_sealevel;temperature;humidity
71970;BME280;59838;52.152;5.436;2023-09-12T00:00:45;101391.28;;;18.99;100.00
71970;BME280;59838;52.152;5.436;2023-09-12T00:03:11;101389.91;;;18.97;100.00
71970;BME280;59838;52.152;5.436;2023-09-12T00:05:38;101382.47;;;18.94;100.00
71970;BME280;59838;52.152;5.436;2023-09-12T00:08:05;101379.47;;;18.90;100.00
71970;BME280;59838;52.152;5.436;2023-09-12T00:10:37;101375.47;;;18.88;100.00
71970;BME280;59838;52.152;5.436;2023-09-12T00:13:04;101378.38;;;18.79;100.00
71970;BME280;59838;52.152;5.436;2023-09-12T00:15:30;101370.81;;;18.71;100.00
71970;BME280;59838;52.152;5.436;2023-09-12T00:17:57;101363.91;;;18.70;100.00
71970;BME280;59838;52.152;5.436;2023-09-12T00:20:23;101375.03;;;18.72;100.00
71970;BME280;59838;52.152;5.436;2023-09-12T00:22:50;101364.50;;;18.72;100.00
71970;BME280;59838;52.152;5.436;2023-09-12T00:25:17;101362.09;;;18.71;100.00
71970;BME280;59838;52.152;5.436;2023-09-12T00:27:49;101360.72;;;18.68;100.00
71970;BME280;59838;52.152;5.436;2023-09-12T00:30:16;101356.91;;;18.64;100.00
71970;BME280;59838;52.152;5.436;2023-09-12T00:32:42;101354.94;;;18.59;100.00
71970;BME280;59838;52.152;5.436;2023-09-12T00:35:09;101350.59;;;18.53;100.00
71970;BME280;59838;52.152;5.436;2023-09-12T00:37:42;101361.78;;;18.49;100.00
71970;BME280;59838;52.152;5.436;2023-09-12T00:40:09;101356.97;;;18.45;100.00
71970;BME280;59838;52.152;5.436;2023-09-12T00:42:36;101367.13;;;18.42;100.00
71970;BME280;59838;52.152;5.436;2023-09-12T00:45:09;101363.09;;;18.39;100.00
71970;BME280;59838;52.152;5.436;2023-09-12T00:47:43;101365.38;;;18.36;100.00
71970;BME280;59838;52.152;5.436;2023-09-12T00:50:10;101370.50;;;18.31;100.00
71970;BME280;59838;52.152;5.436;2023-09-12T00:52:38;101371.81;;;18.21;100.00
71970;BME280;59838;52.152;5.436;2023-09-12T00:55:06;101378.75;;;18.16;100.00
71970;BME280;59838;52.152;5.436;2023-09-12T00:57:34;101370.38;;;18.07;100.00
71970;BME280;59838;52.152;5.436;2023-09-12T01:00:04;101370.00;;;18.03;100.00
71970;BME280;59838;52.152;5.436;2023-09-12T01:02:43;101373.06;;;18.00;100.00
71970;BME280;59838;52.152;5.436;2023-09-12T01:05:11;101370.44;;;18.00;100.00
71970;BME280;59838;52.152;5.436;2023-09-12T01:07:38;101371.88;;;17.96;100.00
71970;BME280;59838;52.152;5.436;2023-09-12T01:10:06;101369.72;;;17.93;100.00
71970;BME280;59838;52.152;5.436;2023-09-12T01:12:33;101364.06;;;17.89;100.00
71970;BME280;59838;52.152;5.436;2023-09-12T01:15:00;101375.19;;;17.85;100.00
71970;BME280;59838;52.152;5.436;2023-09-12T01:17:27;101378.88;;;17.84;100.00
71970;BME280;59838;52.152;5.436;2023-09-12T01:19:54;101370.63;;;17.80;100.00
71970;BME280;59838;52.152;5.436;2023-09-12T01:25:45;101368.03;;;17.73;100.00
71970;BME280;59838;52.152;5.436;2023-09-12T01:28:23;101372.72;;;17.71;100.00
71970;BME280;59838;52.152;5.436;2023-09-12T01:30:51;101376.59;;;17.69;100.00
71970;BME280;59838;52.152;5.436;2023-09-12T01:33:18;101378.81;;;17.65;100.00
71970;BME280;59838;52.152;5.436;2023-09-12T01:35:46;101380.50;;;17.60;100.00
71970;BME280;59838;52.152;5.436;2023-09-12T01:38:13;101374.47;;;17.59;100.00
71970;BME280;59838;52.152;5.436;2023-09-12T01:40:51;101368.59;;;17.57;100.00
71970;BME280;59838;52.152;5.436;2023-09-12T01:43:21;101373.28;;;17.55;100.00
71970;BME280;59838;52.152;5.436;2023-09-12T01:45:50;101364.22;;;17.51;100.00
71970;BME280;59838;52.152;5.436;2023-09-12T01:48:28;101362.25;;;17.46;100.00
71970;BME280;59838;52.152;5.436;2023-09-12T01:51:00;101358.78;;;17.46;100.00
71970;BME280;59838;52.152;5.436;2023-09-12T01:53:28;101358.22;;;17.44;100.00
71970;BME280;59838;52.152;5.436;2023-09-12T01:55:56;101367.09;;;17.43;100.00
71970;BME280;59838;52.152;5.436;2023-09-12T01:58:25;101365.72;;;17.40;100.00
71970;BME280;59838;52.152;5.436;2023-09-12T02:00:52;101364.09;;;17.39;100.00
71970;BME280;59838;52.152;5.436;2023-09-12T02:03:19;101361.53;;;17.32;100.00
71970;BME280;59838;52.152;5.436;2023-09-12T02:05:45;101359.34;;;17.29;100.00
71970;BME280;59838;52.152;5.436;2023-09-12T02:08:12;101355.53;;;17.25;100.00
71970;BME280;59838;52.152;5.436;2023-09-12T02:10:38;101358.59;;;17.22;100.00
71970;BME280;59838;52.152;5.436;2023-09-12T02:13:05;101352.72;;;17.20;100.00
71970;BME280;59838;52.152;5.436;2023-09-12T02:15:32;101352.00;;;17.13;100.00
71970;BME280;59838;52.152;5.436;2023-09-12T02:17:58;101348.63;;;17.06;100.00
71970;BME280;59838;52.152;5.436;2023-09-12T02:20:25;101348.44;;;17.00;100.00
71970;BME280;59838;52.152;5.436;2023-09-12T02:22:51;101351.25;;;16.99;100.00
71970;BME280;59838;52.152;5.436;2023-09-12T02:25:18;101338.53;;;17.03;100.00
71970;BME280;59838;52.152;5.436;2023-09-12T02:27:44;101344.22;;;16.99;100.00
71970;BME280;59838;52.152;5.436;2023-09-12T02:30:11;101352.09;;;16.99;100.00
71970;BME280;59838;52.152;5.436;2023-09-12T02:32:37;101357.56;;;16.98;100.00
71970;BME280;59838;52.152;5.436;2023-09-12T02:35:04;101350.69;;;16.97;100.00
71970;BME280;59838;52.152;5.436;2023-09-12T02:37:31;101352.88;;;17.00;100.00
71970;BME280;59838;52.152;5.436;2023-09-12T02:39:57;101352.66;;;17.02;100.00
71970;BME280;59838;52.152;5.436;2023-09-12T02:42:23;101364.78;;;17.03;100.00
71970;BME280;59838;52.152;5.436;2023-09-12T02:44:51;101368.41;;;17.02;100.00
71970;BME280;59838;52.152;5.436;2023-09-12T02:47:19;101357.13;;;17.01;100.00
71970;BME280;59838;52.152;5.436;2023-09-12T02:49:45;101361.56;;;17.00;100.00
71970;BME280;59838;52.152;5.436;2023-09-12T02:52:11;101358.34;;;16.98;100.00
71970;BME280;59838;52.152;5.436;2023-09-12T02:54:38;101361.97;;;16.97;100.00
71970;BME280;59838;52.152;5.436;2023-09-12T02:57:05;101357.75;;;16.96;100.00
71970;BME280;59838;52.152;5.436;2023-09-12T02:59:31;101364.00;;;16.95;100.00
71970;BME280;59838;52.152;5.436;2023-09-12T03:01:58;101370.09;;;16.96;100.00
71970;BME280;59838;52.152;5.436;2023-09-12T03:04:25;101365.69;;;16.83;100.00
71970;BME280;59838;52.152;5.436;2023-09-12T03:06:53;101359.69;;;16.69;100.00
71970;BME280;59838;52.152;5.436;2023-09-12T03:09:20;101368.56;;;16.68;100.00
71970;BME280;59838;52.152;5.436;2023-09-12T03:11:47;101360.50;;;16.70;100.00
71970;BME280;59838;52.152;5.436;2023-09-12T03:14:13;101367.38;;;16.71;100.00
71970;BME280;59838;52.152;5.436;2023-09-12T03:16:40;101366.34;;;16.72;100.00
71970;BME280;59838;52.152;5.436;2023-09-12T03:19:06;101356.06;;;16.70;100.00
71970;BME280;59838;52.152;5.436;2023-09-12T03:21:33;101362.53;;;16.68;100.00
71970;BME280;59838;52.152;5.436;2023-09-12T03:23:59;101359.91;;;16.68;100.00
71970;BME280;59838;52.152;5.436;2023-09-12T03:26:26;101367.41;;;16.64;100.00
71970;BME280;59838;52.152;5.436;2023-09-12T03:28:53;101371.22;;;16.61;100.00
71970;BME280;59838;52.152;5.436;2023-09-12T03:31:19;101366.81;;;16.62;100.00
71970;BME280;59838;52.152;5.436;2023-09-12T03:33:46;101361.97;;;16.59;100.00
71970;BME280;59838;52.152;5.436;2023-09-12T03:36:16;101358.94;;;16.55;100.00
71970;BME280;59838;52.152;5.436;2023-09-12T03:38:43;101354.16;;;16.52;100.00
71970;BME280;59838;52.152;5.436;2023-09-12T03:41:10;101348.06;;;16.52;100.00
71970;BME280;59838;52.152;5.436;2023-09-12T03:43:37;101352.59;;;16.38;100.00
71970;BME280;59838;52.152;5.436;2023-09-12T03:46:04;101355.25;;;16.24;100.00
71970;BME280;59838;52.152;5.436;2023-09-12T03:48:30;101360.91;;;16.28;100.00
71970;BME280;59838;52.152;5.436;2023-09-12T03:50:58;101360.50;;;16.31;100.00
71970;BME280;59838;52.152;5.436;2023-09-12T03:53:24;101355.84;;;16.33;100.00
71970;BME280;59838;52.152;5.436;2023-09-12T03:55:52;101350.19;;;16.36;100.00
71970;BME280;59838;52.152;5.436;2023-09-12T03:58:19;101343.69;;;16.39;100.00
71970;BME280;59838;52.152;5.436;2023-09-12T04:00:45;101346.94;;;16.41;100.00
71970;BME280;59838;52.152;5.436;2023-09-12T04:03:12;101346.94;;;16.41;100.00
71970;BME280;59838;52.152;5.436;2023-09-12T04:05:38;101350.19;;;16.36;100.00
71970;BME280;59838;52.152;5.436;2023-09-12T04:08:05;101351.38;;;16.34;100.00
71970;BME280;59838;52.152;5.436;2023-09-12T04:10:31;101343.31;;;16.35;100.00
71970;BME280;59838;52.152;5.436;2023-09-12T04:12:58;101350.19;;;16.36;100.00
71970;BME280;59838;52.152;5.436;2023-09-12T04:15:25;101345.53;;;16.38;100.00
71970;BME280;59838;52.152;5.436;2023-09-12T04:17:51;101351.97;;;16.42;100.00
71970;BME280;59838;52.152;5.436;2023-09-12T04:20:19;101340.66;;;16.42;100.00
71970;BME280;59838;52.152;5.436;2023-09-12T04:22:46;101345.91;;;16.42;100.00
71970;BME280;59838;52.152;5.436;2023-09-12T04:25:13;101344.31;;;16.41;100.00
71970;BME280;59838;52.152;5.436;2023-09-12T04:27:41;101345.31;;;16.40;100.00
71970;BME280;59838;52.152;5.436;2023-09-12T04:30:08;101329.59;;;16.40;100.00
71970;BME280;59838;52.152;5.436;2023-09-12T04:32:35;101320.50;;;16.42;100.00
71970;BME280;59838;52.152;5.436;2023-09-12T04:35:02;101313.44;;;16.43;100.00
71970;BME280;59838;52.152;5.436;2023-09-12T04:37:29;101318.88;;;16.41;100.00
71970;BME280;59838;52.152;5.436;2023-09-12T04:39:55;101326.97;;;16.40;100.00
71970;BME280;59838;52.152;5.436;2023-09-12T04:42:23;101333.22;;;16.39;100.00
71970;BME280;59838;52.152;5.436;2023-09-12T04:44:49;101331.41;;;16.39;100.00
71970;BME280;59838;52.152;5.436;2023-09-12T04:47:16;101326.38;;;16.38;100.00
71970;BME280;59838;52.152;5.436;2023-09-12T04:49:43;101327.38;;;16.37;100.00
71970;BME280;59838;52.152;5.436;2023-09-12T04:52:10;101329.59;;;16.40;100.00
71970;BME280;59838;52.152;5.436;2023-09-12T04:54:36;101326.38;;;16.38;100.00
71970;BME280;59838;52.152;5.436;2023-09-12T04:57:03;101330.00;;;16.37;100.00
71970;BME280;59838;52.152;5.436;2023-09-12T04:59:30;101325.38;;;16.32;100.00
71970;BME280;59838;52.152;5.436;2023-09-12T05:01:56;101329.22;;;16.30;100.00
71970;BME280;59838;52.152;5.436;2023-09-12T05:04:23;101323.78;;;16.31;100.00
71970;BME280;59838;52.152;5.436;2023-09-12T05:06:49;101317.91;;;16.29;100.00
71970;BME280;59838;52.152;5.436;2023-09-12T05:09:16;101316.91;;;16.30;100.00
71970;BME280;59838;52.152;5.436;2023-09-12T05:11:42;101314.69;;;16.34;100.00
71970;BME280;59838;52.152;5.436;2023-09-12T05:14:10;101329.00;;;16.38;100.00
71970;BME280;59838;52.152;5.436;2023-09-12T05:16:37;101323.72;;;16.44;100.00
71970;BME280;59838;52.152;5.436;2023-09-12T05:19:03;101334.78;;;16.47;100.00
71970;BME280;59838;52.152;5.436;2023-09-12T05:21:30;101331.38;;;16.46;100.00
71970;BME280;59838;52.152;5.436;2023-09-12T05:23:57;101341.03;;;16.45;100.00
71970;BME280;59838;52.152;5.436;2023-09-12T05:26:23;101339.66;;;16.43;100.00
71970;BME280;59838;52.152;5.436;2023-09-12T05:28:50;101341.28;;;16.37;100.00
71970;BME280;59838;52.152;5.436;2023-09-12T05:31:17;101349.81;;;16.33;100.00
71970;BME280;59838;52.152;5.436;2023-09-12T05:33:44;101340.31;;;16.32;100.00
71970;BME280;59838;52.152;5.436;2023-09-12T05:36:10;101337.69;;;16.32;100.00
71970;BME280;59838;52.152;5.436;2023-09-12T05:38:37;101342.13;;;16.31;100.00
71970;BME280;59838;52.152;5.436;2023-09-12T05:41:03;101342.94;;;16.32;100.00
71970;BME280;59838;52.152;5.436;2023-09-12T05:43:30;101340.09;;;16.33;100.00
71970;BME280;59838;52.152;5.436;2023-09-12T05:45:56;101332.81;;;16.35;100.00
71970;BME280;59838;52.152;5.436;2023-09-12T05:48:24;101344.72;;;16.38;100.00
71970;BME280;59838;52.152;5.436;2023-09-12T05:50:51;101344.69;;;16.44;100.00
71970;BME280;59838;52.152;5.436;2023-09-12T05:53:17;101349.91;;;16.51;100.00
71970;BME280;59838;52.152;5.436;2023-09-12T05:55:44;101344.84;;;16.56;100.00
71970;BME280;59838;52.152;5.436;2023-09-12T05:58:11;101344.59;;;16.64;100.00
71970;BME280;59838;52.152;5.436;2023-09-12T06:00:37;101334.06;;;16.71;100.00
71970;BME280;59838;52.152;5.436;2023-09-12T06:03:04;101343.50;;;16.79;100.00
71970;BME280;59838;52.152;5.436;2023-09-12T06:05:31;101348.91;;;16.84;100.00
71970;BME280;59838;52.152;5.436;2023-09-12T06:07:58;101360.84;;;16.87;100.00
71970;BME280;59838;52.152;5.436;2023-09-12T06:10:24;101351.72;;;16.89;100.00
71970;BME280;59838;52.152;5.436;2023-09-12T06:12:51;101356.13;;;16.95;100.00
71970;BME280;59838;52.152;5.436;2023-09-12T06:15:17;101365.22;;;16.99;100.00
71970;BME280;59838;52.152;5.436;2023-09-12T06:17:44;101372.81;;;17.08;100.00
71970;BME280;59838;52.152;5.436;2023-09-12T06:20:11;101377.81;;;17.16;100.00
71970;BME280;59838;52.152;5.436;2023-09-12T06:22:37;101365.84;;;17.20;100.00
71970;BME280;59838;52.152;5.436;2023-09-12T06:25:05;101373.31;;;17.23;100.00
71970;BME280;59838;52.152;5.436;2023-09-12T06:27:32;101385.44;;;17.24;100.00
71970;BME280;59838;52.152;5.436;2023-09-12T06:29:59;101373.94;;;17.25;100.00
71970;BME280;59838;52.152;5.436;2023-09-12T06:32:25;101375.09;;;17.29;100.00
71970;BME280;59838;52.152;5.436;2023-09-12T06:34:52;101375.25;;;17.34;100.00
71970;BME280;59838;52.152;5.436;2023-09-12T06:37:19;101385.13;;;17.39;100.00
71970;BME280;59838;52.152;5.436;2023-09-12T06:39:49;101386.69;;;17.47;100.00
71970;BME280;59838;52.152;5.436;2023-09-12T06:42:16;101377.13;;;17.52;100.00
71970;BME280;59838;52.152;5.436;2023-09-12T06:44:42;101376.25;;;17.59;100.00
71970;BME280;59838;52.152;5.436;2023-09-12T06:47:09;101383.50;;;17.63;100.00
71970;BME280;59838;52.152;5.436;2023-09-12T06:49:36;101377.38;;;17.69;100.00
71970;BME280;59838;52.152;5.436;2023-09-12T06:52:04;101379.16;;;17.76;100.00
71970;BME280;59838;52.152;5.436;2023-09-12T06:54:32;101382.50;;;17.83;100.00
71970;BME280;59838;52.152;5.436;2023-09-12T06:56:59;101387.06;;;17.94;100.00
71970;BME280;59838;52.152;5.436;2023-09-12T06:59:26;101379.72;;;18.03;100.00
71970;BME280;59838;52.152;5.436;2023-09-12T07:01:52;101385.28;;;18.13;100.00
71970;BME280;59838;52.152;5.436;2023-09-12T07:04:18;101384.75;;;18.23;100.00
71970;BME280;59838;52.152;5.436;2023-09-12T07:06:45;101392.34;;;18.31;100.00
71970;BME280;59838;52.152;5.436;2023-09-12T07:09:12;101394.31;;;18.36;100.00
71970;BME280;59838;52.152;5.436;2023-09-12T07:11:41;101400.72;;;18.40;100.00
71970;BME280;59838;52.152;5.436;2023-09-12T07:14:09;101391.81;;;18.41;100.00
71970;BME280;59838;52.152;5.436;2023-09-12T07:16:36;101390.59;;;18.43;100.00
71970;BME280;59838;52.152;5.436;2023-09-12T07:19:03;101387.97;;;18.43;100.00
71970;BME280;59838;52.152;5.436;2023-09-12T07:21:31;101384.28;;;18.44;100.00
71970;BME280;59838;52.152;5.436;2023-09-12T07:23:58;101378.59;;;18.48;100.00
71970;BME280;59838;52.152;5.436;2023-09-12T07:26:24;101378.38;;;18.49;100.00
71970;BME280;59838;52.152;5.436;2023-09-12T07:28:54;101379.16;;;18.50;100.00
71970;BME280;59838;52.152;5.436;2023-09-12T07:31:20;101382.41;;;18.52;100.00
71970;BME280;59838;52.152;5.436;2023-09-12T07:33:47;101392.91;;;18.52;100.00
71970;BME280;59838;52.152;5.436;2023-09-12T07:36:13;101384.81;;;18.53;100.00
71970;BME280;59838;52.152;5.436;2023-09-12T07:38:40;101388.81;;;18.56;100.00
71970;BME280;59838;52.152;5.436;2023-09-12T07:41:08;101386.16;;;18.56;100.00
71970;BME280;59838;52.152;5.436;2023-09-12T07:43:35;101389.97;;;18.60;100.00
71970;BME280;59838;52.152;5.436;2023-09-12T07:46:01;101388.66;;;18.69;100.00
71970;BME280;59838;52.152;5.436;2023-09-12T07:48:28;101387.81;;;18.87;100.00
71970;BME280;59838;52.152;5.436;2023-09-12T07:50:55;101391.63;;;19.03;100.00
71970;BME280;59838;52.152;5.436;2023-09-12T07:53:22;101394.00;;;19.35;100.00
71970;BME280;59838;52.152;5.436;2023-09-12T07:55:49;101399.06;;;19.72;100.00
71970;BME280;59838;52.152;5.436;2023-09-12T07:58:16;101391.78;;;20.26;100.00
71970;BME280;59838;52.152;5.436;2023-09-12T08:00:45;101390.47;;;20.81;100.00
71970;BME280;59838;52.152;5.436;2023-09-12T08:03:13;101382.25;;;20.95;100.00
71970;BME280;59838;52.152;5.436;2023-09-12T08:05:39;101389.63;;;21.10;100.00
71970;BME280;59838;52.152;5.436;2023-09-12T08:08:06;101390.81;;;21.36;100.00
71970;BME280;59838;52.152;5.436;2023-09-12T08:10:32;101396.34;;;21.68;100.00
71970;BME280;59838;52.152;5.436;2023-09-12T08:12:59;101407.34;;;21.99;100.00
71970;BME280;59838;52.152;5.436;2023-09-12T08:15:26;101403.00;;;22.32;100.00
71970;BME280;59838;52.152;5.436;2023-09-12T08:17:53;101413.84;;;22.58;100.00
71970;BME280;59838;52.152;5.436;2023-09-12T08:20:20;101420.84;;;22.69;100.00
71970;BME280;59838;52.152;5.436;2023-09-12T08:22:47;101413.69;;;22.64;100.00
71970;BME280;59838;52.152;5.436;2023-09-12T08:25:15;101410.41;;;22.57;100.00
71970;BME280;59838;52.152;5.436;2023-09-12T08:27:41;101413.28;;;22.78;100.00
71970;BME280;59838;52.152;5.436;2023-09-12T08:30:12;101414.69;;;22.86;100.00
71970;BME280;59838;52.152;5.436;2023-09-12T08:32:40;101421.19;;;22.73;100.00
71970;BME280;59838;52.152;5.436;2023-09-12T08:35:11;101422.09;;;22.89;100.00
71970;BME280;59838;52.152;5.436;2023-09-12T08:37:40;101418.25;;;23.01;100.00
71970;BME280;59838;52.152;5.436;2023-09-12T08:40:07;101414.84;;;23.06;100.00
71970;BME280;59838;52.152;5.436;2023-09-12T08:42:43;101418.81;;;23.04;100.00
71970;BME280;59838;52.152;5.436;2023-09-12T08:45:15;101422.19;;;22.94;100.00
71970;BME280;59838;52.152;5.436;2023-09-12T08:47:44;101413.06;;;22.85;100.00
71970;BME280;59838;52.152;5.436;2023-09-12T08:50:12;101411.00;;;22.92;100.00
71970;BME280;59838;52.152;5.436;2023-09-12T08:52:43;101409.91;;;23.10;100.00
71970;BME280;59838;52.152;5.436;2023-09-12T08:55:29;101409.53;;;23.33;100.00
71970;BME280;59838;52.152;5.436;2023-09-12T08:57:58;101402.22;;;23.51;100.00
71970;BME280;59838;52.152;5.436;2023-09-12T09:00:26;101409.94;;;23.52;100.00
71970;BME280;59838;52.152;5.436;2023-09-12T09:02:54;101412.06;;;23.55;97.71
71970;BME280;59838;52.152;5.436;2023-09-12T09:05:21;101407.28;;;23.52;97.21
71970;BME280;59838;52.152;5.436;2023-09-12T09:07:49;101407.88;;;23.65;95.70
71970;BME280;59838;52.152;5.436;2023-09-12T09:10:18;101406.88;;;23.76;95.49
71970;BME280;59838;52.152;5.436;2023-09-12T09:12:54;101405.28;;;23.75;95.97
71970;BME280;59838;52.152;5.436;2023-09-12T09:15:22;101402.78;;;23.53;97.11
71970;BME280;59838;52.152;5.436;2023-09-12T09:17:49;101403.72;;;23.36;97.88
71970;BME280;59838;52.152;5.436;2023-09-12T09:20:30;101405.97;;;23.55;97.04
71970;BME280;59838;52.152;5.436;2023-09-12T09:23:05;101412.78;;;23.83;96.70
71970;BME280;59838;52.152;5.436;2023-09-12T09:25:32;101407.53;;;23.99;96.80
71970;BME280;59838;52.152;5.436;2023-09-12T09:28:04;101416.38;;;24.09;96.26
71970;BME280;59838;52.152;5.436;2023-09-12T09:30:48;101411.03;;;23.99;96.62
71970;BME280;59838;52.152;5.436;2023-09-12T09:33:17;101415.97;;;23.85;95.80
71970;BME280;59838;52.152;5.436;2023-09-12T09:35:48;101427.38;;;23.86;96.93
71970;BME280;59838;52.152;5.436;2023-09-12T09:38:18;101418.97;;;23.99;96.04
71970;BME280;59838;52.152;5.436;2023-09-12T09:40:45;101423.84;;;24.28;97.16
71970;BME280;59838;52.152;5.436;2023-09-12T09:43:12;101424.94;;;24.27;92.74
71970;BME280;59838;52.152;5.436;2023-09-12T09:45:45;101415.31;;;24.11;94.04
71970;BME280;59838;52.152;5.436;2023-09-12T09:48:19;101417.22;;;24.25;91.44
71970;BME280;59838;52.152;5.436;2023-09-12T09:50:45;101420.66;;;24.26;93.32
71970;BME280;59838;52.152;5.436;2023-09-12T09:53:12;101426.81;;;24.37;91.34
71970;BME280;59838;52.152;5.436;2023-09-12T09:55:39;101424.97;;;24.37;92.04
71970;BME280;59838;52.152;5.436;2023-09-12T09:58:05;101424.66;;;24.23;91.49
71970;BME280;59838;52.152;5.436;2023-09-12T10:00:37;101430.47;;;24.15;92.29
71970;BME280;59838;52.152;5.436;2023-09-12T10:03:05;101436.78;;;24.04;92.56
71970;BME280;59838;52.152;5.436;2023-09-12T10:05:33;101421.56;;;23.89;91.13
71970;BME280;59838;52.152;5.436;2023-09-12T10:08:03;101428.22;;;23.86;91.46
71970;BME280;59838;52.152;5.436;2023-09-12T10:10:32;101429.72;;;23.77;91.67
71970;BME280;59838;52.152;5.436;2023-09-12T10:13:02;101435.16;;;23.93;92.62
71970;BME280;59838;52.152;5.436;2023-09-12T10:15:30;101437.53;;;23.94;92.79
71970;BME280;59838;52.152;5.436;2023-09-12T10:17:59;101438.97;;;24.17;93.87
71970;BME280;59838;52.152;5.436;2023-09-12T10:20:52;101431.38;;;24.46;89.68
71970;BME280;59838;52.152;5.436;2023-09-12T10:23:41;101426.16;;;24.77;89.84
71970;BME280;59838;52.152;5.436;2023-09-12T10:26:14;101439.69;;;24.71;89.73
71970;BME280;59838;52.152;5.436;2023-09-12T10:28:41;101435.94;;;24.56;89.79
71970;BME280;59838;52.152;5.436;2023-09-12T10:31:11;101428.28;;;24.86;88.21
71970;BME280;59838;52.152;5.436;2023-09-12T10:33:38;101426.41;;;25.17;85.36
71970;BME280;59838;52.152;5.436;2023-09-12T10:36:08;101424.31;;;25.19;86.54
71970;BME280;59838;52.152;5.436;2023-09-12T10:38:42;101413.97;;;25.28;84.16
71970;BME280;59838;52.152;5.436;2023-09-12T10:41:14;101411.84;;;25.40;83.24
71970;BME280;59838;52.152;5.436;2023-09-12T10:43:43;101409.69;;;25.37;82.59
71970;BME280;59838;52.152;5.436;2023-09-12T10:46:10;101423.00;;;25.37;84.91
71970;BME280;59838;52.152;5.436;2023-09-12T10:48:37;101427.50;;;25.26;84.35
71970;BME280;59838;52.152;5.436;2023-09-12T10:51:04;101428.53;;;25.25;83.32
71970;BME280;59838;52.152;5.436;2023-09-12T10:53:31;101425.91;;;25.05;83.97
71970;BME280;59838;52.152;5.436;2023-09-12T11:01:34;101433.34;;;24.97;80.69
71970;BME280;59838;52.152;5.436;2023-09-12T11:06:49;101426.44;;;25.22;83.36
71970;BME280;59838;52.152;5.436;2023-09-12T11:09:18;101428.56;;;25.41;81.25
71970;BME280;59838;52.152;5.436;2023-09-12T11:11:48;101431.75;;;25.48;78.99
71970;BME280;59838;52.152;5.436;2023-09-12T11:14:15;101429.09;;;25.53;80.29
71970;BME280;59838;52.152;5.436;2023-09-12T11:19:47;101417.44;;;25.33;79.92
71970;BME280;59838;52.152;5.436;2023-09-12T11:22:22;101413.41;;;25.41;78.18
71970;BME280;59838;52.152;5.436;2023-09-12T11:24:49;101405.41;;;25.57;79.69
71970;BME280;59838;52.152;5.436;2023-09-12T11:27:15;101395.28;;;25.59;77.99
71970;BME280;59838;52.152;5.436;2023-09-12T11:29:43;101397.91;;;25.69;79.80
71970;BME280;59838;52.152;5.436;2023-09-12T11:32:25;101399.84;;;25.43;77.65
71970;BME280;59838;52.152;5.436;2023-09-12T11:34:52;101398.53;;;25.35;80.20
71970;BME280;59838;52.152;5.436;2023-09-12T11:37:25;101394.00;;;25.35;78.93
71970;BME280;59838;52.152;5.436;2023-09-12T11:39:53;101396.66;;;25.20;80.39
71970;BME280;59838;52.152;5.436;2023-09-12T11:42:20;101395.88;;;25.40;79.88
71970;BME280;59838;52.152;5.436;2023-09-12T11:44:52;101399.56;;;25.44;78.96
71970;BME280;59838;52.152;5.436;2023-09-12T11:47:19;101400.38;;;25.40;78.01
71970;BME280;59838;52.152;5.436;2023-09-12T11:49:46;101397.22;;;25.32;78.98
71970;BME280;59838;52.152;5.436;2023-09-12T11:52:15;101395.31;;;25.53;79.49
71970;BME280;59838;52.152;5.436;2023-09-12T11:54:44;101391.25;;;25.77;78.73
71970;BME280;59838;52.152;5.436;2023-09-12T11:57:14;101400.84;;;25.72;77.07
71970;BME280;59838;52.152;5.436;2023-09-12T11:59:43;101391.03;;;25.52;77.12
71970;BME280;59838;52.152;5.436;2023-09-12T12:02:15;101393.97;;;25.51;75.89
71970;BME280;59838;52.152;5.436;2023-09-12T12:04:42;101397.69;;;25.55;76.39
71970;BME280;59838;52.152;5.436;2023-09-12T12:07:10;101398.19;;;25.62;75.13
71970;BME280;59838;52.152;5.436;2023-09-12T12:09:37;101393.72;;;25.42;nan
71970;BME280;59838;52.152;5.436;2023-09-12T12:12:14;101400.13;;;25.36;76.41
71970;BME280;59838;52.152;5.436;2023-09-12T12:14:41;101398.25;;;25.47;75.59
71970;BME280;59838;52.152;5.436;2023-09-12T12:17:09;101402.19;;;25.65;76.82
71970;BME280;59838;52.152;5.436;2023-09-12T12:19:37;101387.22;;;25.89;77.79
71970;BME280;59838;52.152;5.436;2023-09-12T12:22:05;101382.72;;;25.80;73.99
71970;BME280;59838;52.152;5.436;2023-09-12T12:24:45;101380.09;;;25.75;74.96
71970;BME280;59838;52.152;5.436;2023-09-12T12:27:15;101380.84;;;25.85;76.08
71970;BME280;59838;52.152;5.436;2023-09-12T12:29:42;101377.81;;;26.18;73.26
71970;BME280;59838;52.152;5.436;2023-09-12T12:32:10;101377.72;;;26.33;74.02
71970;BME280;59838;52.152;5.436;2023-09-12T12:34:37;101379.25;;;26.44;70.12
71970;BME280;59838;52.152;5.436;2023-09-12T12:37:29;101370.72;;;26.42;71.82
71970;BME280;59838;52.152;5.436;2023-09-12T12:40:00;101370.34;;;26.20;72.29
71970;BME280;59838;52.152;5.436;2023-09-12T12:42:33;101371.94;;;26.21;71.88
71970;BME280;59838;52.152;5.436;2023-09-12T12:45:16;101365.75;;;26.25;72.25
71970;BME280;59838;52.152;5.436;2023-09-12T12:47:43;101365.88;;;26.50;73.27
71970;BME280;59838;52.152;5.436;2023-09-12T12:50:17;101358.63;;;26.60;71.86
71970;BME280;59838;52.152;5.436;2023-09-12T12:52:47;101357.84;;;26.55;71.21
71970;BME280;59838;52.152;5.436;2023-09-12T12:55:15;101358.31;;;26.67;67.28
71970;BME280;59838;52.152;5.436;2023-09-12T12:57:43;101371.28;;;26.39;69.16
71970;BME280;59838;52.152;5.436;2023-09-12T13:00:17;101365.53;;;26.22;70.33
71970;BME280;59838;52.152;5.436;2023-09-12T13:02:45;101362.88;;;26.17;72.83